Latest Weather Observations for Oodnadatta

IDS60801

Issued at 3:41 pm CDT Saturday 19 January 2019 (issued every 10 minutes, with the page automatically refreshed every 10 minutes)

About weather observations | Map of weather stations | Latest weather observations for SA | Other Formats
Station Details ID: 017043 Name: OODNADATTA AIRPORT Lat: -27.56 Lon: 135.45 Height: 116.5 m
Data from the previous 72 hours. | See also: Recent months at Oodnadatta
Date/Time
CDT
Temp
°C
App
Temp
°C
Dew
Point
°C
Rel
Hum
%
Delta-T
°C
Wind Press
QNH
hPa
Press
MSL
hPa
Rain since
9am
mm
Dir  Spd
km/h
Gust
km/h
Spd
kts
Gust
kts
19/03:30pm 41.4 37.2 12.3 18 17.9 ESE 26 43 14 23 1010.8 1009.9 0.0
19/03:00pm 41.2 36.8 13.0 19 17.5 ESE 28 39 15 21 1011.2 1010.3 0.0
19/02:35pm 39.8 35.3 12.6 20 16.7 SE 28 48 15 26 1011.7 1010.8 0.0
19/02:30pm 39.0 35.1 12.0 20 16.4 ESE 24 39 13 21 1011.9 1011.0 0.0
19/02:00pm 39.9 35.7 13.4 21 16.5 ESE 28 44 15 24 1012.3 1011.4 0.0
19/01:30pm 38.3 33.9 12.8 22 15.6 SE 28 39 15 21 1012.6 1011.8 0.0
19/01:00pm 36.5 31.0 12.0 23 14.8 SE 32 44 17 24 1012.9 1012.1 0.0
19/12:30pm 37.0 31.5 12.4 23 14.9 ESE 33 46 18 25 1013.0 1012.2 0.0
19/12:00pm 35.5 29.4 11.8 24 14.2 SE 35 46 19 25 1013.3 1012.5 0.0
19/11:30am 34.9 29.0 12.5 25 13.5 SE 35 44 19 24 1013.5 1012.7 0.0
19/11:00am 33.1 28.2 13.7 31 11.8 SSE 32 46 17 25 1013.7 1012.9 0.0
19/10:30am 32.0 26.9 13.7 33 11.1 SSE 33 41 18 22 1013.9 1013.1 0.0
19/10:00am 30.5 25.8 14.2 37 9.9 SSE 32 43 17 23 1013.8 1013.0 0.0
19/09:30am 28.8 23.9 14.2 40 8.8 S 33 41 18 22 1013.8 1013.0 0.0
19/09:00am 29.2 23.2 13.4 38 9.4 S 37 43 20 23 1013.5 1012.7 0.0
19/08:30am 28.2 22.8 12.9 38 9.0 S 33 41 18 22 1013.6 1012.8 0.0
19/08:00am 28.0 22.3 13.1 39 8.8 S 35 43 19 23 1012.8 1012.0 0.0
19/07:30am 27.8 22.9 14.4 43 8.1 S 33 46 18 25 1012.5 1011.7 0.0
19/07:00am 28.2 24.0 16.1 47 7.5 S 33 39 18 21 1012.2 1011.3 0.0
19/06:30am 28.8 25.6 15.3 43 8.3 S 26 35 14 19 1011.9 1011.0 0.0
19/06:00am 28.9 25.6 15.1 43 8.5 S 26 32 14 17 1011.5 1010.6 0.0
19/05:30am 29.2 27.0 15.0 42 8.7 SSW 20 26 11 14 1011.2 1010.3 0.0
19/05:00am 29.5 27.5 14.9 41 8.9 SSW 19 26 10 14 1011.4 1010.5 0.0
19/04:30am 29.6 27.0 15.0 41 9.0 S 22 26 12 14 1011.3 1010.4 0.0
19/04:00am 30.0 27.2 15.3 41 9.1 S 24 30 13 16 1011.1 1010.2 0.0
19/03:30am 30.0 27.4 14.9 39 9.3 S 22 26 12 14 1011.0 1010.1 0.0
19/03:00am 30.1 27.8 14.6 39 9.5 SSW 20 26 11 14 1010.8 1009.9 0.0
19/02:30am 30.7 28.6 14.8 38 9.8 SSW 19 22 10 12 1011.1 1010.2 0.0
19/02:00am 31.2 29.0 14.8 37 10.1 S 20 24 11 13 1011.4 1010.5 0.0
19/01:30am 31.4 28.8 15.0 37 10.1 S 22 30 12 16 1011.2 1010.3 0.0
19/01:00am 31.6 28.3 15.1 36 10.2 S 26 32 14 17 1011.2 1010.3 0.0
19/12:30am 32.0 28.3 15.1 36 10.5 S 28 35 15 19 1011.2 1010.3 0.0
19/12:00am 32.2 28.2 15.2 35 10.6 SSE 30 35 16 19 1011.2 1010.3 0.0
 
Date/Time
CDT
Temp
°C
App
Temp
°C
Dew
Point
°C
Rel
Hum
%
Delta-T
°C
Wind Press
QNH
hPa
Press
MSL
hPa
Rain since
9am
mm
Dir  Spd
km/h
Gust
km/h
Spd
kts
Gust
kts
18/11:30pm 32.4 28.1 15.4 36 10.6 S 32 39 17 21 1011.4 1010.5 0.0
18/11:00pm 32.7 28.5 15.7 36 10.7 S 32 41 17 22 1011.1 1010.2 0.0
18/10:30pm 33.1 28.5 15.1 33 11.2 S 33 43 18 23 1010.9 1010.0 0.0
18/10:00pm 33.6 29.5 16.5 36 10.9 S 33 44 18 24 1010.9 1010.0 0.0
18/09:30pm 35.0 28.6 14.3 29 12.8 S 41 52 22 28 1010.3 1009.5 0.0
18/09:00pm 35.5 28.3 13.1 26 13.7 S 43 54 23 29 1009.9 1009.1 0.0
18/08:34pm 35.7 29.3 13.2 26 13.7 SSE 39 57 21 31 1009.9 1009.1 0.0
18/08:30pm 35.7 28.5 13.2 26 13.8 SSE 43 57 23 31 1009.8 1009.0 0.0
18/08:20pm 35.7 28.5 13.2 26 13.7 SSE 43 61 23 33 1009.5 1008.7 0.0
18/08:00pm 35.8 26.6 13.3 26 13.8 SSE 54 69 29 37 1008.3 1007.5 0.0
18/07:30pm 36.3 27.8 13.1 25 14.2 SSE 50 63 27 34 1008.2 1007.4 0.0
18/07:17pm 36.7 28.1 12.8 24 14.6 SSE 50 69 27 37 1008.1 1007.3 0.0
18/07:00pm 37.7 27.7 13.7 24 14.9 SSE 59 72 32 39 1006.8 1006.0 0.0
18/06:49pm 37.1 27.3 13.2 24 14.7 SSE 57 76 31 41 1006.4 1005.6 0.0
18/06:30pm 37.0 27.7 13.1 24 14.7 SSE 54 65 29 35 1007.3 1006.5 0.0
18/06:00pm 37.6 27.9 13.6 24 14.9 SSE 57 74 31 40 1006.4 1005.6 0.0
18/05:30pm 38.2 29.8 13.4 23 15.4 SSE 50 69 27 37 1006.3 1005.5 0.0
18/05:08pm 36.8 27.7 14.7 26 13.8 SSE 56 83 30 45 1005.2 1004.4 0.0
18/05:00pm 36.6 27.4 15.1 27 13.5 S 57 72 31 39 1005.1 1004.3 0.0
18/04:47pm 34.0 25.3 17.2 36 10.8 S 59 80 32 43 1005.4 1004.6 0.0
18/04:30pm 35.8 27.6 18.4 35 11.5 SSE 59 82 32 44 1007.4 1006.6 0.0
18/04:26pm 37.9 27.4 14.5 25 14.7 SSE 63 82 34 44 1006.4 1005.6 0.0
18/04:11pm 39.1 29.6 14.2 23 15.6 SE 57 82 31 44 1004.4 1003.5 0.0
18/04:10pm 39.5 29.9 13.8 22 16.0 SE 57 82 31 44 1004.2 1003.3 0.0
18/04:05pm 42.2 31.9 11.1 16 18.9 SSE 56 78 30 42 1003.9 1003.0 0.0
18/04:03pm 41.7 31.0 11.7 17 18.3 S 59 78 32 42 1003.4 1002.5 0.0
18/04:02pm 41.4 30.6 11.4 17 18.2 S 59 78 32 42 1003.2 1002.3 0.0
18/04:00pm 40.2 30.5 13.7 21 16.6 S 57 78 31 42 1003.3 1002.4 0.0
18/03:55pm 41.4 34.6 13.1 19 17.6 S 41 78 22 42 1003.1 1002.2 0.0
18/03:51pm 43.8 38.0 9.3 13 20.6 SSW 30 61 16 33 1004.0 1003.1 0.0
18/03:30pm 42.7 37.3 9.5 14 19.8 W 28 46 15 25 1004.1 1003.2 0.0
18/03:17pm 44.8 41.0 8.9 12 21.4 N 19 43 10 23 1003.9 1003.0 0.0
18/03:00pm 44.0 41.9 8.3 12 21.1 NE 9 22 5 12 1004.2 1003.3 0.0
18/02:30pm 44.4 42.4 8.6 12 21.2 SSW 9 17 5 9 1004.5 1003.6 0.0
18/02:00pm 44.5 41.7 8.6 12 21.3 ESE 13 48 7 26 1004.3 1003.4 0.0
18/01:30pm 43.4 40.0 9.0 13 20.4 SSE 17 35 9 19 1004.7 1003.9 0.0
18/01:00pm 42.8 39.5 9.6 14 19.8 SW 17 30 9 16 1005.0 1004.2 0.0
18/12:30pm 43.4 39.0 9.0 13 20.4 SSE 22 39 12 21 1005.3 1004.5 0.0
18/12:00pm 42.6 39.7 9.5 14 19.7 S 15 26 8 14 1005.6 1004.8 0.0
18/11:30am 41.2 39.0 9.4 15 18.8 SSE 11 17 6 9 1005.8 1005.0 0.0
18/11:00am 40.8 37.8 9.1 15 18.6 SE 15 22 8 12 1006.0 1005.2 0.0
18/10:30am 39.5 37.2 9.0 16 17.8 S 11 20 6 11 1006.0 1005.2 0.0
18/10:00am 38.5 35.2 8.2 16 17.4 SSE 15 20 8 11 1006.0 1005.2 0.0
18/09:30am 37.6 33.1 10.0 19 16.3 SSE 24 28 13 15 1005.9 1005.1 0.0
18/09:00am 37.9 33.3 9.5 18 16.6 SSE 24 32 13 17 1005.9 1005.1 0.0
18/08:42am 36.8 33.1 9.4 19 15.9 S 19 37 10 20 1005.8 1005.0 0.0
18/08:30am 38.1 36.0 6.0 14 17.9 S 6 13 3 7 1005.5 1004.7 0.0
18/08:00am 36.7 34.6 5.9 15 16.9 ENE 6 7 3 4 1005.1 1004.3 0.0
18/07:30am 36.1 34.7 5.4 15 16.8 SW 2 7 1 4 1004.6 1003.7 0.0
18/07:00am 35.0 31.7 4.5 15 16.3 SSW 11 20 6 11 1004.4 1003.5 0.0
18/06:30am 34.3 31.3 4.0 15 16.0 SW 9 13 5 7 1003.8 1002.9 0.0
18/06:00am 35.1 31.4 4.6 15 16.4 N 13 22 7 12 1003.1 1002.2 0.0
18/05:30am 34.6 29.7 4.2 15 16.2 N 19 24 10 13 1002.2 1001.3 0.0
18/05:00am 34.6 29.3 3.2 14 16.4 N 20 28 11 15 1001.8 1000.9 0.0
18/04:30am 34.1 29.9 3.8 15 16.0 NNE 15 24 8 13 1001.9 1001.0 0.0
18/04:00am 34.8 29.8 3.4 14 16.4 NNE 19 22 10 12 1001.4 1000.6 0.0
18/03:30am 35.0 30.9 4.5 15 16.3 NNE 15 20 8 11 1001.3 1000.5 0.0
18/03:00am 35.1 31.0 4.6 15 16.4 NNE 15 19 8 10 1001.6 1000.7 0.0
18/02:30am 35.9 31.4 4.2 14 17.0 NNE 17 19 9 10 1001.8 1000.9 0.0
18/02:00am 36.7 31.7 3.8 13 17.5 NNE 19 24 10 13 1002.1 1001.2 0.0
18/01:30am 37.3 32.8 4.3 13 17.8 NNE 17 22 9 12 1002.2 1001.3 0.0
18/01:00am 37.7 32.9 4.6 13 17.9 NNE 19 24 10 13 1002.2 1001.3 0.0
18/12:30am 38.1 32.9 3.8 12 18.5 NNE 20 24 11 13 1002.3 1001.4 0.0
18/12:00am 38.7 33.0 3.0 11 19.1 NNE 22 26 12 14 1002.3 1001.4 0.0
 
Date/Time
CDT
Temp
°C
App
Temp
°C
Dew
Point
°C
Rel
Hum
%
Delta-T
°C
Wind Press
QNH
hPa
Press
MSL
hPa
Rain since
9am
mm
Dir  Spd
km/h
Gust
km/h
Spd
kts
Gust
kts
17/11:30pm 39.0 33.7 3.2 11 19.2 NNE 20 24 11 13 1002.3 1001.4 0.0
17/11:00pm 39.5 33.9 3.6 11 19.3 NNE 22 24 12 13 1002.4 1001.5 0.0
17/10:30pm 39.9 34.7 2.5 10 19.9 NNE 19 22 10 12 1002.4 1001.5 0.0
17/10:00pm 40.8 35.2 3.2 10 20.3 NE 22 26 12 14 1002.2 1001.3 0.0
17/09:30pm 42.1 36.6 4.2 10 20.9 NE 22 28 12 15 1002.0 1001.1 0.0
17/09:00pm 42.7 38.6 6.0 11 20.9 NNE 17 24 9 13 1001.7 1000.8 0.0
17/08:30pm 43.2 38.8 5.0 10 21.5 NNE 17 24 9 13 1001.4 1000.6 0.0
17/08:00pm 44.0 39.4 5.6 10 21.8 N 19 26 10 14 1001.2 1000.4 0.0
17/07:30pm 44.6 40.5 6.1 10 22.1 NNE 17 28 9 15 1000.9 1000.1 0.0
17/07:00pm 44.8 40.0 4.7 9 22.5 N 19 30 10 16 1000.7 999.9 0.0
17/06:30pm 45.1 39.4 4.9 9 22.8 N 24 39 13 21 1000.7 999.9 0.0
17/06:00pm 46.0 40.1 5.6 9 23.2 NNE 26 41 14 22 1000.7 999.9 0.0
17/05:30pm 45.4 39.7 5.1 9 22.9 N 24 39 13 21 1001.0 1000.2 0.0
17/05:00pm 46.9 40.7 6.2 9 23.5 N 28 44 15 24 1001.3 1000.5 0.0
17/04:35pm 46.0 39.7 5.6 9 23.1 NNE 28 46 15 25 1001.6 1000.7 0.0
17/04:30pm 47.1 42.1 6.4 9 23.7 N 22 33 12 18 1001.7 1000.8 0.0
17/04:05pm 45.9 39.2 3.8 8 23.5 NNE 28 52 15 28 1002.2 1001.3 0.0
17/04:00pm 44.8 39.4 4.7 9 22.5 NNE 22 39 12 21 1002.3 1001.4 0.0
17/03:31pm 44.7 38.2 4.6 9 22.5 N 28 52 15 28 1002.7 1001.8 0.0
17/03:30pm 45.4 39.1 3.5 8 23.3 N 26 52 14 28 1002.6 1001.7 0.0
17/03:00pm 44.3 37.3 4.3 9 22.4 N 30 52 16 28 1003.1 1002.2 0.0
17/02:56pm 44.9 38.1 3.1 8 23.0 N 28 52 15 28 1003.3 1002.4 0.0
17/02:30pm 44.4 37.5 4.4 9 22.4 N 30 52 16 28 1003.8 1002.9 0.0
17/02:09pm 45.1 38.6 4.9 9 22.7 N 28 46 15 25 1004.2 1003.3 0.0
17/02:00pm 44.6 38.1 4.5 9 22.4 N 28 43 15 23 1004.3 1003.4 0.0
17/01:30pm 44.1 37.5 4.2 9 22.2 N 28 46 15 25 1004.9 1004.1 0.0
17/01:25pm 43.3 36.9 5.1 10 21.4 N 28 46 15 25 1004.9 1004.1 0.0
17/01:00pm 43.9 38.3 5.5 10 21.7 N 24 37 13 20 1005.2 1004.4 0.0
17/12:33pm 42.9 35.7 4.8 10 21.2 N 32 50 17 27 1005.5 1004.7 0.0
17/12:30pm 43.3 35.9 5.1 10 21.5 N 33 44 18 24 1005.6 1004.8 0.0
17/12:00pm 43.1 35.3 4.9 10 21.4 N 35 54 19 29 1005.9 1005.1 0.0
17/11:56am 43.1 35.3 4.9 10 21.3 N 35 54 19 29 1005.9 1005.1 0.0
17/11:30am 43.3 35.2 5.1 10 21.5 N 37 50 20 27 1006.1 1005.3 0.0
17/11:11am 42.3 34.0 4.3 10 21.0 N 37 56 20 30 1006.2 1005.4 0.0
17/11:00am 41.6 33.2 3.8 10 20.6 N 37 50 20 27 1006.3 1005.5 0.0
17/10:30am 40.8 31.8 4.6 11 20.0 N 41 54 22 29 1006.2 1005.4 0.0
17/10:00am 40.5 32.5 5.6 12 19.5 N 37 48 20 26 1006.2 1005.4 0.0
17/09:30am 39.5 32.9 6.0 13 18.7 N 30 41 16 22 1006.4 1005.6 0.0
17/09:00am 37.7 31.6 6.6 15 17.4 N 28 39 15 21 1006.5 1005.7 0.0
17/08:30am 36.3 30.9 6.5 16 16.5 N 24 35 13 19 1006.5 1005.7 0.0
17/08:00am 34.8 29.5 7.0 18 15.4 N 24 30 13 16 1006.2 1005.4 0.0
17/07:30am 33.4 28.8 6.6 19 14.7 N 20 26 11 14 1006.0 1005.2 0.0
17/07:00am 32.2 28.3 7.1 21 13.8 NNE 17 22 9 12 1005.6 1004.8 0.0
17/06:30am 31.9 28.0 6.9 21 13.7 NNE 17 19 9 10 1005.3 1004.5 0.0
17/06:00am 32.6 28.6 6.7 20 14.2 N 17 20 9 11 1004.9 1004.1 0.0
17/05:30am 33.1 29.2 7.1 20 14.4 N 17 24 9 13 1004.8 1004.0 0.0
17/05:00am 33.7 29.2 6.9 19 14.7 N 20 26 11 14 1004.6 1003.7 0.0
17/04:30am 33.8 29.3 7.0 19 14.8 NNE 20 24 11 13 1004.6 1003.7 0.0
17/04:00am 34.5 30.1 6.7 18 15.3 NNE 19 22 10 12 1004.6 1003.7 0.0
17/03:30am 34.4 29.8 6.7 18 15.3 NE 20 22 11 12 1004.7 1003.9 0.0
17/03:00am 34.7 30.2 6.9 18 15.4 NE 20 24 11 13 1004.8 1004.0 0.0
17/02:30am 34.3 29.9 6.6 18 15.3 NE 19 20 10 11 1005.0 1004.2 0.0
17/02:00am 35.2 30.8 6.5 17 15.8 NE 19 20 10 11 1005.4 1004.6 0.0
17/01:30am 35.7 31.4 6.9 17 16.1 NE 19 20 10 11 1005.6 1004.8 0.0
17/01:00am 36.2 31.8 6.4 16 16.5 NE 19 22 10 12 1005.8 1005.0 0.0
17/12:30am 36.8 31.7 5.9 15 17.0 NE 22 26 12 14 1005.8 1005.0 0.0
17/12:00am 37.6 32.6 6.6 15 17.4 NE 22 24 12 13 1005.8 1005.0 0.0
 
Date/Time
CDT
Temp
°C
App
Temp
°C
Dew
Point
°C
Rel
Hum
%
Delta-T
°C
Wind Press
QNH
hPa
Press
MSL
hPa
Rain since
9am
mm
Dir  Spd
km/h
Gust
km/h
Spd
kts
Gust
kts
16/11:30pm 38.3 32.8 6.1 14 18.0 NE 24 28 13 15 1005.7 1004.9 0.0
16/11:00pm 38.9 34.3 6.6 14 18.1 NE 20 24 11 13 1005.6 1004.8 0.0
16/10:30pm 39.4 35.2 5.9 13 18.7 NNE 17 20 9 11 1005.3 1004.5 0.0
16/10:00pm 40.2 34.6 5.4 12 19.3 NE 24 28 13 15 1005.0 1004.2 0.0
16/09:30pm 41.0 35.6 4.7 11 20.1 NNE 22 28 12 15 1004.7 1003.9 0.0
16/09:00pm 41.6 36.1 3.8 10 20.7 NNE 22 28 12 15 1004.4 1003.5 0.0
16/08:30pm 42.4 36.2 4.4 10 21.1 NE 26 35 14 19 1003.9 1003.0 0.0
16/08:00pm 43.2 35.7 3.5 9 21.8 NE 32 39 17 21 1003.4 1002.5 0.0
16/07:30pm 43.6 38.6 3.8 9 22.0 NNE 19 28 10 15 1003.2 1002.3 0.0
16/07:00pm 44.3 38.1 4.3 9 22.3 NNE 26 41 14 22 1003.1 1002.2 0.0
16/06:30pm 44.9 39.2 4.8 9 22.6 NE 24 39 13 21 1002.9 1002.0 0.0
16/06:11pm 44.5 37.6 4.5 9 22.4 NE 30 48 16 26 1002.9 1002.0 0.0
16/06:00pm 45.3 37.8 3.4 8 23.2 NE 32 44 17 24 1002.9 1002.0 0.0
16/05:42pm 45.3 38.9 5.1 9 22.8 NE 28 46 15 25 1002.9 1002.0 0.0
16/05:30pm 45.0 39.3 4.8 9 22.7 ENE 24 43 13 23 1002.9 1002.0 0.0
16/05:14pm 45.1 37.6 3.2 8 23.1 NE 32 50 17 27 1003.1 1002.2 0.0
16/05:00pm 45.4 39.1 3.5 8 23.2 NE 26 43 14 23 1003.1 1002.2 0.0
16/04:38pm 46.1 39.5 4.0 8 23.6 NNE 28 48 15 26 1003.3 1002.4 0.0
16/04:30pm 45.7 39.8 3.7 8 23.4 N 24 43 13 23 1003.4 1002.5 0.0
16/04:00pm 45.1 38.6 4.9 9 22.7 NE 28 37 15 20 1003.9 1003.0 0.0
16/03:51pm 46.1 39.8 5.6 9 23.2 NE 28 46 15 25 1004.1 1003.2 0.0
16/03:42pm 45.8 39.1 3.7 8 23.4 NE 28 46 15 25 1004.2 1003.3 0.0

Other Formats:

Comma delimited format used in spreadsheet applications
http://www.bom.gov.au/fwo/IDS60801/IDS60801.94476.axf

JavaScript Object Notation format (JSON) in row-major order
http://www.bom.gov.au/fwo/IDS60801/IDS60801.94476.json